createdAt,value
2022-11-17T00:01:24.640Z,6.54
2022-11-17T00:03:51.974Z,6.63
2022-11-17T00:06:21.762Z,6.63
2022-11-17T00:08:48.933Z,6.62
2022-11-17T00:11:15.440Z,6.65
2022-11-17T00:14:00.481Z,6.74
2022-11-17T00:16:27.088Z,6.75
2022-11-17T00:19:12.548Z,6.89
2022-11-17T00:21:38.956Z,6.92
2022-11-17T00:24:05.725Z,6.90
2022-11-17T00:26:34.047Z,6.93
2022-11-17T00:29:05.184Z,6.93
2022-11-17T00:31:52.166Z,6.96
2022-11-17T00:34:23.513Z,6.97
2022-11-17T00:36:52.050Z,7.07
2022-11-17T00:39:20.419Z,7.11
2022-11-17T00:41:47.003Z,7.14
2022-11-17T00:44:14.339Z,7.19
2022-11-17T00:46:41.954Z,7.14
2022-11-17T00:49:09.974Z,7.05
2022-11-17T00:51:37.019Z,6.97
2022-11-17T00:54:04.597Z,7.01
2022-11-17T00:56:31.291Z,7.02
2022-11-17T00:58:58.030Z,7.10
2022-11-17T01:01:24.512Z,7.07
2022-11-17T01:03:51.004Z,7.15
2022-11-17T01:06:19.579Z,7.16
2022-11-17T01:08:46.652Z,7.18
2022-11-17T01:11:16.037Z,7.19
2022-11-17T01:13:44.344Z,7.17
2022-11-17T01:16:15.198Z,7.20
2022-11-17T01:18:43.179Z,7.26
2022-11-17T01:21:14.177Z,7.28
2022-11-17T01:23:42.744Z,7.16
2022-11-17T01:26:12.410Z,7.21
2022-11-17T01:28:39.906Z,7.23
2022-11-17T01:31:17.486Z,7.20
2022-11-17T01:33:43.796Z,7.14
2022-11-17T01:36:25.236Z,7.17
2022-11-17T01:38:51.889Z,7.21
2022-11-17T01:41:24.801Z,7.20
2022-11-17T01:43:59.275Z,7.24
2022-11-17T01:46:39.680Z,7.24
2022-11-17T01:49:18.054Z,7.28
2022-11-17T01:51:52.922Z,7.31
2022-11-17T01:54:22.443Z,7.33
2022-11-17T01:56:55.025Z,7.31
2022-11-17T01:59:27.286Z,7.36
2022-11-17T02:01:57.833Z,7.41
2022-11-17T02:04:32.251Z,7.40
2022-11-17T02:07:10.989Z,7.41
2022-11-17T02:09:39.525Z,7.46
2022-11-17T02:12:09.261Z,7.41
2022-11-17T02:14:36.635Z,7.38
2022-11-17T02:17:11.604Z,7.46
2022-11-17T02:19:43.247Z,7.51
2022-11-17T02:22:37.955Z,7.53
2022-11-17T02:25:27.526Z,7.60
2022-11-17T02:28:09.207Z,7.59
2022-11-17T02:30:54.345Z,7.58
2022-11-17T02:33:23.678Z,7.56
2022-11-17T02:36:02.393Z,7.55
2022-11-17T02:38:57.215Z,7.59
2022-11-17T02:41:30.635Z,7.61
2022-11-17T02:44:33.462Z,7.67
2022-11-17T02:47:07.519Z,7.68
2022-11-17T02:49:41.139Z,7.71
2022-11-17T02:52:08.862Z,7.69
2022-11-17T02:54:35.384Z,7.69
2022-11-17T02:57:01.866Z,7.73
2022-11-17T02:59:33.924Z,7.71
2022-11-17T03:02:08.741Z,7.66
2022-11-17T03:05:22.667Z,7.74
2022-11-17T03:08:12.037Z,7.75
2022-11-17T03:10:58.728Z,7.60
2022-11-17T03:13:53.742Z,7.55
2022-11-17T03:16:33.581Z,7.61
2022-11-17T03:19:18.230Z,7.66
2022-11-17T03:22:07.123Z,7.72
2022-11-17T03:24:38.770Z,7.80
2022-11-17T03:27:17.737Z,7.67
2022-11-17T03:29:49.321Z,7.70
2022-11-17T03:32:17.820Z,7.69
2022-11-17T03:34:49.369Z,7.74
2022-11-17T03:37:19.076Z,7.76
2022-11-17T03:39:52.594Z,7.82
2022-11-17T03:42:23.398Z,7.88
2022-11-17T03:44:54.876Z,7.84
2022-11-17T03:47:25.675Z,7.80
2022-11-17T03:50:09.264Z,7.81
2022-11-17T03:52:38.056Z,7.87
2022-11-17T03:55:06.197Z,7.84
2022-11-17T03:57:43.797Z,7.88
2022-11-17T04:00:11.313Z,7.92
2022-11-17T04:02:41.782Z,7.92
2022-11-17T04:05:09.422Z,7.95
2022-11-17T04:07:37.026Z,8.00
2022-11-17T04:10:06.266Z,8.00
2022-11-17T04:12:51.331Z,7.92
2022-11-17T04:15:52.838Z,7.94
2022-11-17T04:18:19.998Z,7.93
2022-11-17T04:20:49.994Z,7.88
2022-11-17T04:23:16.793Z,7.85
2022-11-17T04:26:04.469Z,7.83
2022-11-17T04:28:38.535Z,7.90
2022-11-17T04:31:15.265Z,7.96
2022-11-17T04:33:44.046Z,8.00
2022-11-17T04:36:13.140Z,7.93
2022-11-17T04:38:44.191Z,7.88
2022-11-17T04:41:30.197Z,7.81
2022-11-17T04:43:57.617Z,7.80
2022-11-17T04:46:25.214Z,7.79
2022-11-17T04:48:53.887Z,7.77
2022-11-17T04:51:21.122Z,7.76
2022-11-17T04:53:48.267Z,7.78
2022-11-17T04:56:15.184Z,7.88
2022-11-17T04:58:42.417Z,7.82
2022-11-17T05:01:12.454Z,7.92
2022-11-17T05:03:44.784Z,7.74
2022-11-17T05:06:17.998Z,7.75
2022-11-17T05:08:45.199Z,7.79
2022-11-17T05:11:32.360Z,7.84
2022-11-17T05:13:59.447Z,7.88
2022-11-17T05:16:44.833Z,7.86
2022-11-17T05:19:17.372Z,7.93
2022-11-17T05:21:44.085Z,7.92
2022-11-17T05:24:10.853Z,7.94
2022-11-17T05:26:38.499Z,7.96
2022-11-17T05:29:06.907Z,7.85
2022-11-17T05:31:33.447Z,7.80
2022-11-17T05:34:00.555Z,7.83
2022-11-17T05:36:27.583Z,7.86
2022-11-17T05:38:55.160Z,7.91
2022-11-17T05:41:22.920Z,7.86
2022-11-17T05:43:50.457Z,7.90
2022-11-17T05:46:21.177Z,7.97
2022-11-17T05:48:50.598Z,7.95
2022-11-17T05:51:19.146Z,7.95
2022-11-17T05:53:46.545Z,7.92
2022-11-17T05:56:30.147Z,7.93
2022-11-17T05:59:28.493Z,7.91
2022-11-17T06:02:02.336Z,7.92
2022-11-17T06:04:29.027Z,7.89
2022-11-17T06:06:59.358Z,7.87
2022-11-17T06:09:28.629Z,7.85
2022-11-17T06:11:56.810Z,7.86
2022-11-17T06:14:25.146Z,7.79
2022-11-17T06:16:57.158Z,7.82
2022-11-17T06:19:37.026Z,7.81
2022-11-17T06:22:12.176Z,7.84
2022-11-17T06:24:40.390Z,7.87
2022-11-17T06:27:07.941Z,7.85
2022-11-17T06:29:38.195Z,7.92
2022-11-17T06:32:07.780Z,7.93
2022-11-17T06:34:35.246Z,8.00
2022-11-17T06:37:01.809Z,8.03
2022-11-17T06:39:28.292Z,7.93
2022-11-17T06:41:54.857Z,7.92
2022-11-17T06:44:21.266Z,7.88
2022-11-17T06:46:49.191Z,7.83
2022-11-17T06:49:16.226Z,7.79
2022-11-17T06:51:45.374Z,7.71
2022-11-17T06:54:13.140Z,7.65
2022-11-17T06:56:39.829Z,7.63
2022-11-17T06:59:06.377Z,7.63
2022-11-17T07:01:33.039Z,7.59
2022-11-17T07:03:59.504Z,7.62
2022-11-17T07:06:26.134Z,7.63
2022-11-17T07:08:53.196Z,7.60
2022-11-17T07:11:22.492Z,7.62
2022-11-17T07:13:50.056Z,7.65
2022-11-17T07:16:23.994Z,7.63
2022-11-17T07:18:51.331Z,7.62
2022-11-17T07:21:18.151Z,7.57
2022-11-17T07:23:50.296Z,7.57
2022-11-17T07:26:19.831Z,7.55
2022-11-17T07:28:46.935Z,7.64
2022-11-17T07:31:14.206Z,7.69
2022-11-17T07:33:41.658Z,7.80
2022-11-17T07:36:15.279Z,7.85
2022-11-17T07:38:43.357Z,7.90
2022-11-17T07:41:14.186Z,7.88
2022-11-17T07:43:41.251Z,7.91
2022-11-17T07:48:55.697Z,8.03
2022-11-17T07:51:23.287Z,7.98
2022-11-17T07:53:50.499Z,8.02
2022-11-17T07:56:19.543Z,8.07
2022-11-17T07:58:49.799Z,8.18
2022-11-17T08:01:17.067Z,8.30
2022-11-17T08:03:44.883Z,8.33
2022-11-17T08:06:13.969Z,8.34
2022-11-17T08:08:46.159Z,8.23
2022-11-17T08:11:14.599Z,8.29
2022-11-17T08:13:46.654Z,8.41
2022-11-17T08:16:25.011Z,8.48
2022-11-17T08:18:52.951Z,8.49
2022-11-17T08:21:24.395Z,8.57
2022-11-17T08:23:53.387Z,8.51
2022-11-17T08:26:24.005Z,8.57
2022-11-17T08:28:58.786Z,8.58
2022-11-17T08:31:27.683Z,8.64
2022-11-17T08:33:54.627Z,8.70
2022-11-17T08:36:21.742Z,8.57
2022-11-17T08:38:56.550Z,8.59
2022-11-17T08:41:23.751Z,8.69
2022-11-17T08:43:51.767Z,8.77
2022-11-17T08:46:19.663Z,8.76
2022-11-17T08:48:55.472Z,8.74
2022-11-17T08:51:34.017Z,8.72
2022-11-17T08:54:01.940Z,8.73
2022-11-17T08:56:28.789Z,8.73
2022-11-17T08:58:56.372Z,8.71
2022-11-17T09:01:23.556Z,8.67
2022-11-17T09:03:50.746Z,8.66
2022-11-17T09:06:20.338Z,8.67
2022-11-17T09:08:49.163Z,8.70
2022-11-17T09:11:16.836Z,8.68
2022-11-17T09:13:45.721Z,8.71
2022-11-17T09:16:13.128Z,8.83
2022-11-17T09:18:41.472Z,8.95
2022-11-17T09:21:11.456Z,8.94
2022-11-17T09:23:42.582Z,9.01
2022-11-17T09:26:12.902Z,9.13
2022-11-17T09:28:40.549Z,9.23
2022-11-17T09:31:13.997Z,9.30
2022-11-17T09:33:42.036Z,9.31
2022-11-17T09:36:09.661Z,9.27
2022-11-17T09:38:38.369Z,9.38
2022-11-17T09:41:19.454Z,9.34
2022-11-17T09:43:57.936Z,9.35
2022-11-17T09:46:49.578Z,9.54
2022-11-17T09:49:30.863Z,9.78
2022-11-17T09:52:07.299Z,9.85
2022-11-17T09:54:58.150Z,9.85
2022-11-17T09:58:26.642Z,9.93
2022-11-17T10:00:54.617Z,9.84
2022-11-17T10:03:41.966Z,9.90
2022-11-17T10:06:25.054Z,9.99
2022-11-17T10:09:08.076Z,9.92
2022-11-17T10:11:39.309Z,10.03
2022-11-17T10:14:08.898Z,9.95
2022-11-17T10:16:37.891Z,9.95
2022-11-17T10:19:22.730Z,10.11
2022-11-17T10:21:56.299Z,10.08
2022-11-17T10:24:41.133Z,10.21
2022-11-17T10:27:24.814Z,10.30
2022-11-17T10:30:04.566Z,10.58
2022-11-17T10:32:49.544Z,10.95
2022-11-17T10:35:25.130Z,10.99
2022-11-17T10:37:53.830Z,10.92
2022-11-17T10:40:25.604Z,11.00
2022-11-17T10:43:14.630Z,10.92
2022-11-17T10:45:53.400Z,10.74
2022-11-17T10:48:29.672Z,10.66
2022-11-17T10:51:24.489Z,10.53
2022-11-17T10:54:15.693Z,10.45
2022-11-17T10:56:47.235Z,10.31
2022-11-17T10:59:21.544Z,10.13
2022-11-17T11:01:51.322Z,10.19
2022-11-17T11:04:39.788Z,10.11
2022-11-17T11:07:34.282Z,10.17
2022-11-17T11:10:41.773Z,10.36
2022-11-17T11:13:14.912Z,10.66
2022-11-17T11:15:42.040Z,10.69
2022-11-17T11:18:14.534Z,10.88
2022-11-17T11:21:00.459Z,10.91
2022-11-17T11:23:45.467Z,10.94
2022-11-17T11:26:49.623Z,10.81
2022-11-17T11:29:32.613Z,10.77
2022-11-17T11:32:16.895Z,10.89
2022-11-17T11:34:59.388Z,10.91
2022-11-17T11:37:45.776Z,10.82
2022-11-17T11:40:23.409Z,10.83
2022-11-17T11:43:03.294Z,10.85
2022-11-17T11:45:38.949Z,10.88
2022-11-17T11:48:09.921Z,10.96
2022-11-17T11:50:58.456Z,10.88
2022-11-17T11:53:31.287Z,11.06
2022-11-17T11:56:13.202Z,11.29
2022-11-17T12:01:40.199Z,11.84
2022-11-17T12:04:25.972Z,12.06
2022-11-17T12:07:16.783Z,12.18
2022-11-17T12:10:29.741Z,12.19
2022-11-17T12:12:57.317Z,12.17
2022-11-17T12:15:24.070Z,12.19
2022-11-17T12:18:00.219Z,12.18
2022-11-17T12:20:39.144Z,12.17
2022-11-17T12:23:34.009Z,12.15
2022-11-17T12:26:02.194Z,12.05
2022-11-17T12:28:39.802Z,12.12
2022-11-17T12:31:42.128Z,12.06
2022-11-17T12:34:21.033Z,11.95
2022-11-17T12:37:15.623Z,12.05
2022-11-17T12:39:58.561Z,12.09
2022-11-17T12:42:29.078Z,11.88
2022-11-17T12:44:58.267Z,11.70
2022-11-17T12:47:30.601Z,11.51
2022-11-17T12:50:12.359Z,11.41
2022-11-17T12:52:57.302Z,11.27
2022-11-17T12:55:33.066Z,10.87
2022-11-17T12:58:18.124Z,10.48
2022-11-17T13:01:30.316Z,10.26
2022-11-17T13:04:29.579Z,10.24
2022-11-17T13:07:08.275Z,10.47
2022-11-17T13:09:36.800Z,10.56
2022-11-17T13:12:06.119Z,10.55
2022-11-17T13:14:34.730Z,10.47
2022-11-17T13:17:02.905Z,10.44
2022-11-17T13:19:38.538Z,10.31
2022-11-17T13:22:06.700Z,10.18
2022-11-17T13:24:39.590Z,10.04
2022-11-17T13:27:17.679Z,10.13
2022-11-17T13:29:44.341Z,10.04
2022-11-17T13:32:17.408Z,9.93
2022-11-17T13:35:00.594Z,9.94
2022-11-17T13:37:29.215Z,10.03
2022-11-17T13:39:57.910Z,10.22
2022-11-17T13:42:27.782Z,10.25
2022-11-17T13:44:56.231Z,10.39
2022-11-17T13:47:39.324Z,10.61
2022-11-17T13:50:27.198Z,10.69
2022-11-17T13:53:12.044Z,10.57
2022-11-17T13:55:45.810Z,10.75
2022-11-17T13:58:38.546Z,10.72
2022-11-17T14:01:05.282Z,10.90
2022-11-17T14:03:38.569Z,10.79
2022-11-17T14:06:13.650Z,10.79
2022-11-17T14:08:44.231Z,10.83
2022-11-17T14:11:10.761Z,10.79
2022-11-17T14:13:44.482Z,10.81
2022-11-17T14:16:37.500Z,10.83
2022-11-17T14:19:25.488Z,10.83
2022-11-17T14:22:03.804Z,10.71
2022-11-17T14:24:33.563Z,10.70
2022-11-17T14:27:01.205Z,10.64
2022-11-17T14:29:29.429Z,10.66
2022-11-17T14:31:57.206Z,10.72
2022-11-17T14:34:23.862Z,10.75
2022-11-17T14:36:54.525Z,10.81
2022-11-17T14:39:24.100Z,10.73
2022-11-17T14:41:51.169Z,10.68
2022-11-17T14:44:17.902Z,10.60
2022-11-17T14:46:44.804Z,10.57
2022-11-17T14:49:11.980Z,10.51
2022-11-17T14:51:40.902Z,10.54
2022-11-17T14:54:07.393Z,10.29
2022-11-17T14:56:34.926Z,10.30
2022-11-17T14:59:02.350Z,10.28
2022-11-17T15:01:31.500Z,10.30
2022-11-17T15:04:15.359Z,10.19
2022-11-17T15:06:48.397Z,10.03
2022-11-17T15:09:18.084Z,9.93
2022-11-17T15:11:44.620Z,9.84
2022-11-17T15:14:11.265Z,9.81
2022-11-17T15:16:38.298Z,9.84
2022-11-17T15:19:04.871Z,9.77
2022-11-17T15:21:31.583Z,9.77
2022-11-17T15:23:58.307Z,9.83
2022-11-17T15:26:25.088Z,9.84
2022-11-17T15:28:51.650Z,9.90
2022-11-17T15:31:20.237Z,9.90
2022-11-17T15:33:48.283Z,9.86
2022-11-17T15:36:17.118Z,9.89
2022-11-17T15:38:44.883Z,9.83
2022-11-17T15:41:13.080Z,9.74
2022-11-17T15:43:41.018Z,9.69
2022-11-17T15:46:13.118Z,9.71
2022-11-17T15:48:44.081Z,9.61
2022-11-17T15:51:12.737Z,9.57
2022-11-17T15:53:39.821Z,9.61
2022-11-17T15:56:08.833Z,9.63
2022-11-17T15:58:36.572Z,9.67
2022-11-17T16:01:12.376Z,9.75
2022-11-17T16:03:40.798Z,9.73
2022-11-17T16:06:08.555Z,9.70
2022-11-17T16:08:35.295Z,9.51
2022-11-17T16:11:02.000Z,9.44
2022-11-17T16:13:29.345Z,9.45
2022-11-17T16:15:56.562Z,9.47
2022-11-17T16:18:23.902Z,9.58
2022-11-17T16:20:51.344Z,9.66
2022-11-17T16:23:18.560Z,9.72
2022-11-17T16:25:48.446Z,9.75
2022-11-17T16:28:16.830Z,9.81
2022-11-17T16:30:43.695Z,9.85
2022-11-17T16:33:12.357Z,9.76
2022-11-17T16:35:40.481Z,9.69
2022-11-17T16:38:08.178Z,9.65
2022-11-17T16:40:37.468Z,9.64
2022-11-17T16:43:04.105Z,9.64
2022-11-17T16:45:30.923Z,9.63
2022-11-17T16:47:59.252Z,9.62
2022-11-17T16:50:29.032Z,9.49
2022-11-17T16:52:55.504Z,9.34
2022-11-17T16:55:22.023Z,9.32
2022-11-17T16:57:51.879Z,9.38
2022-11-17T17:00:18.900Z,9.37
2022-11-17T17:02:49.955Z,9.10
2022-11-17T17:05:16.810Z,9.03
2022-11-17T17:07:43.551Z,9.07
2022-11-17T17:10:10.315Z,9.19
2022-11-17T17:12:37.099Z,9.22
2022-11-17T17:15:04.684Z,9.36
2022-11-17T17:17:33.618Z,9.35
2022-11-17T17:20:00.056Z,9.33
2022-11-17T17:22:26.693Z,9.38
2022-11-17T17:24:53.394Z,9.47
2022-11-17T17:27:20.025Z,9.44
2022-11-17T17:29:46.813Z,9.36
2022-11-17T17:32:13.221Z,9.05
2022-11-17T17:34:39.832Z,8.90
2022-11-17T17:37:06.468Z,8.91
2022-11-17T17:39:34.302Z,9.01
2022-11-17T17:42:00.857Z,9.13
2022-11-17T17:44:27.353Z,9.27
2022-11-17T17:46:57.173Z,9.36
2022-11-17T17:49:23.651Z,9.38
2022-11-17T17:51:50.157Z,9.31
2022-11-17T17:54:21.300Z,9.24
2022-11-17T17:56:48.312Z,9.20
2022-11-17T17:59:15.958Z,9.22
2022-11-17T18:01:47.008Z,9.18
2022-11-17T18:04:16.182Z,8.97
2022-11-17T18:06:47.221Z,9.00
2022-11-17T18:09:15.629Z,9.14
2022-11-17T18:11:46.089Z,9.31
2022-11-17T18:14:13.396Z,9.30
2022-11-17T18:16:40.440Z,9.28
2022-11-17T18:19:08.606Z,9.22
2022-11-17T18:21:35.646Z,9.14
2022-11-17T18:24:02.998Z,9.10
2022-11-17T18:26:33.671Z,9.03
2022-11-17T18:29:02.679Z,9.07
2022-11-17T18:31:31.677Z,8.98
2022-11-17T18:34:01.408Z,8.98
2022-11-17T18:39:16.822Z,8.81
2022-11-17T18:42:06.643Z,8.82
2022-11-17T18:44:33.616Z,8.96
2022-11-17T18:47:02.993Z,8.93
2022-11-17T18:49:30.935Z,9.07
2022-11-17T18:52:03.653Z,9.06
2022-11-17T18:54:30.384Z,8.93
2022-11-17T18:56:57.454Z,8.77
2022-11-17T18:59:24.366Z,8.68
2022-11-17T19:01:58.228Z,8.64
2022-11-17T19:04:26.360Z,8.60
2022-11-17T19:06:56.965Z,8.55
2022-11-17T19:09:27.090Z,8.64
2022-11-17T19:11:54.556Z,8.81
2022-11-17T19:14:21.304Z,8.89
2022-11-17T19:16:51.297Z,9.04
2022-11-17T19:19:19.536Z,9.16
2022-11-17T19:21:50.043Z,9.20
2022-11-17T19:24:17.251Z,9.20
2022-11-17T19:26:44.147Z,9.23
2022-11-17T19:29:17.263Z,9.31
2022-11-17T19:31:46.289Z,9.23
2022-11-17T19:34:20.465Z,9.18
2022-11-17T19:36:52.088Z,9.13
2022-11-17T19:39:19.306Z,9.05
2022-11-17T19:41:47.931Z,9.24
2022-11-17T19:44:14.882Z,9.06
2022-11-17T19:46:42.843Z,8.89
2022-11-17T19:49:12.936Z,8.94
2022-11-17T19:51:41.476Z,8.99
2022-11-17T19:54:09.930Z,9.05
2022-11-17T19:56:36.899Z,9.02
2022-11-17T19:59:03.745Z,9.02
2022-11-17T20:01:33.013Z,9.00
2022-11-17T20:04:01.193Z,9.05
2022-11-17T20:06:32.195Z,9.01
2022-11-17T20:08:59.211Z,8.97
2022-11-17T20:11:30.787Z,9.02
2022-11-17T20:13:58.260Z,8.99
2022-11-17T20:16:29.543Z,9.09
2022-11-17T20:18:58.410Z,9.06
2022-11-17T20:21:27.707Z,9.07
2022-11-17T20:23:59.482Z,8.99
2022-11-17T20:26:29.550Z,8.94
2022-11-17T20:28:58.437Z,8.87
2022-11-17T20:31:28.662Z,9.04
2022-11-17T20:33:57.896Z,9.11
2022-11-17T20:36:25.327Z,9.01
2022-11-17T20:38:56.988Z,8.77
2022-11-17T20:41:25.039Z,8.70
2022-11-17T20:43:55.988Z,8.69
2022-11-17T20:46:24.260Z,8.71
2022-11-17T20:48:52.593Z,8.73
2022-11-17T20:54:03.633Z,8.68
2022-11-17T20:56:31.245Z,8.59
2022-11-17T20:59:19.625Z,8.62
2022-11-17T21:01:50.493Z,8.68
2022-11-17T21:04:20.621Z,8.68
2022-11-17T21:06:48.671Z,8.53
2022-11-17T21:09:18.640Z,8.50
2022-11-17T21:17:48.529Z,8.76
2022-11-17T21:20:18.184Z,8.80
2022-11-17T21:22:54.918Z,8.83
2022-11-17T21:25:23.525Z,8.85
2022-11-17T21:27:51.613Z,8.78
2022-11-17T21:30:23.659Z,8.77
2022-11-17T21:32:50.811Z,8.83
2022-11-17T21:35:18.737Z,8.88
2022-11-17T21:37:47.589Z,8.82
2022-11-17T21:45:39.324Z,8.89
2022-11-17T21:48:07.825Z,8.93
2022-11-17T21:50:37.702Z,8.89
2022-11-17T21:53:11.199Z,8.83
2022-11-17T21:55:44.781Z,8.78
2022-11-17T21:58:11.585Z,8.69
2022-11-17T22:00:38.289Z,8.77
2022-11-17T22:03:04.915Z,8.87
2022-11-17T22:05:31.557Z,8.96
2022-11-17T22:07:59.060Z,8.94
2022-11-17T22:10:25.831Z,8.90
2022-11-17T22:12:52.389Z,8.96
2022-11-17T22:15:18.846Z,8.86
2022-11-17T22:17:45.427Z,8.87
2022-11-17T22:20:11.951Z,8.85
2022-11-17T22:22:38.504Z,8.82
2022-11-17T22:25:29.968Z,8.82
2022-11-17T22:27:52.543Z,8.93
2022-11-17T22:30:19.050Z,9.03
2022-11-17T22:32:45.632Z,9.10
2022-11-17T22:35:12.236Z,9.10
2022-11-17T22:37:38.862Z,9.07
2022-11-17T22:40:05.881Z,9.02
2022-11-17T22:42:32.471Z,8.99
2022-11-17T22:44:59.150Z,8.93
2022-11-17T22:47:25.674Z,8.93
2022-11-17T22:49:52.144Z,8.84
2022-11-17T22:52:18.642Z,8.84
2022-11-17T22:54:45.081Z,8.82
2022-11-17T22:57:11.518Z,8.78
2022-11-17T22:59:38.172Z,8.76
2022-11-17T23:02:04.754Z,8.80
2022-11-17T23:04:31.252Z,8.81
2022-11-17T23:06:57.904Z,8.84
2022-11-17T23:09:24.687Z,8.84
2022-11-17T23:11:51.247Z,8.86
2022-11-17T23:14:17.736Z,8.89
2022-11-17T23:16:44.289Z,8.86
2022-11-17T23:19:14.397Z,8.90
2022-11-17T23:21:41.310Z,8.88
2022-11-17T23:24:10.351Z,8.91
2022-11-17T23:26:36.864Z,8.94
2022-11-17T23:29:03.504Z,8.92
2022-11-17T23:31:30.197Z,8.87
2022-11-17T23:33:56.864Z,8.78
2022-11-17T23:36:23.672Z,8.78
2022-11-17T23:38:51.255Z,8.75
2022-11-17T23:41:20.317Z,8.71
2022-11-17T23:43:50.757Z,8.68
2022-11-17T23:46:19.691Z,8.66
2022-11-17T23:48:46.600Z,8.62
2022-11-17T23:51:19.170Z,8.62
2022-11-17T23:53:46.879Z,8.65
2022-11-17T23:56:15.295Z,8.66
2022-11-17T23:58:42.225Z,8.67
